createdAt,value
2019-06-15T00:00:59.620Z,94923.49
2019-06-15T00:03:27.974Z,94915.06
2019-06-15T00:05:57.314Z,94920.68
2019-06-15T00:08:25.690Z,94922.44
2019-06-15T00:13:28.345Z,94919.55
2019-06-15T00:15:57.600Z,94921.39
2019-06-15T00:18:25.956Z,94906.89
2019-06-15T00:20:58.067Z,94910.00
2019-06-15T00:23:26.471Z,94915.75
2019-06-15T00:28:44.049Z,94936.44
2019-06-15T00:31:14.341Z,94937.23
2019-06-15T00:36:29.957Z,94930.52
2019-06-15T00:38:59.277Z,94938.72
2019-06-15T00:41:27.637Z,94936.88
2019-06-15T00:44:07.861Z,94930.97
2019-06-15T00:46:42.797Z,94918.38
2019-06-15T00:49:14.942Z,94907.61
2019-06-15T00:54:17.639Z,94895.25
2019-06-15T00:59:20.355Z,94874.61
2019-06-15T01:02:07.537Z,94868.64
2019-06-15T01:05:01.189Z,94860.77
2019-06-15T01:07:30.482Z,94867.77
2019-06-15T01:15:19.321Z,94874.64
2019-06-15T01:17:59.024Z,94865.72
2019-06-15T01:20:27.393Z,94861.99
2019-06-15T01:28:15.130Z,94850.70
2019-06-15T01:30:48.241Z,94847.20
2019-06-15T01:33:16.584Z,94838.17
2019-06-15T01:38:20.165Z,94832.80
2019-06-15T01:40:53.196Z,94845.23
2019-06-15T01:43:21.598Z,94851.20
2019-06-15T01:45:53.670Z,94865.40
2019-06-15T01:48:22.941Z,94869.48
2019-06-15T01:51:01.330Z,94862.39
2019-06-15T01:53:29.680Z,94856.32
2019-06-15T01:56:14.728Z,94861.99
2019-06-15T01:59:12.559Z,94846.34
2019-06-15T02:01:40.914Z,94827.66
2019-06-15T02:07:09.161Z,94806.55
2019-06-15T02:10:02.852Z,94818.55
2019-06-15T02:12:31.206Z,94820.52
2019-06-15T02:14:59.554Z,94806.39
2019-06-15T02:17:27.947Z,94814.27
2019-06-15T02:20:06.519Z,94819.95
2019-06-15T02:22:37.809Z,94816.95
2019-06-15T02:25:06.188Z,94809.63
2019-06-15T02:31:07.929Z,94804.80
2019-06-15T02:41:35.047Z,94819.10
2019-06-15T02:44:05.334Z,94814.61
2019-06-15T02:46:33.686Z,94822.09
2019-06-15T02:49:02.041Z,94818.69
2019-06-15T02:51:30.447Z,94820.89
2019-06-15T02:54:02.644Z,94824.48
2019-06-15T02:56:31.041Z,94820.45
2019-06-15T02:58:59.403Z,94817.37
2019-06-15T03:01:27.756Z,94820.09
2019-06-15T03:06:30.347Z,94827.16
2019-06-15T03:09:05.988Z,94825.50
2019-06-15T03:11:35.280Z,94820.38
2019-06-15T03:14:14.734Z,94821.91
2019-06-15T03:17:13.457Z,94825.22
2019-06-15T03:19:45.568Z,94830.77
2019-06-15T03:22:14.841Z,94829.33
2019-06-15T03:27:25.502Z,94836.74
2019-06-15T03:29:53.858Z,94836.95
2019-06-15T03:32:22.281Z,94837.84
2019-06-15T03:35:14.616Z,94845.50
2019-06-15T03:37:42.974Z,94851.80
2019-06-15T03:40:14.958Z,94861.34
2019-06-15T03:42:43.307Z,94852.99
2019-06-15T03:45:13.616Z,94845.88
2019-06-15T03:47:58.822Z,94844.95
2019-06-15T03:50:27.186Z,94841.37
2019-06-15T03:55:31.943Z,94848.66
2019-06-15T03:58:15.256Z,94842.69
2019-06-15T04:01:13.254Z,94842.48
2019-06-15T04:06:27.892Z,94844.33
2019-06-15T04:08:56.268Z,94853.48
2019-06-15T04:11:24.670Z,94846.13
2019-06-15T04:14:12.316Z,94847.30
2019-06-15T04:16:46.053Z,94857.19
2019-06-15T04:19:14.416Z,94850.75
2019-06-15T04:22:08.879Z,94845.48
2019-06-15T04:24:40.713Z,94849.22
2019-06-15T04:27:14.739Z,94852.92
2019-06-15T04:29:47.589Z,94856.97
2019-06-15T04:32:15.936Z,94863.06
2019-06-15T04:35:14.034Z,94865.40
2019-06-15T04:40:18.662Z,94866.13
2019-06-15T04:43:06.323Z,94877.39
2019-06-15T04:45:40.979Z,94880.14
2019-06-15T04:48:14.939Z,94884.55
2019-06-15T04:53:18.463Z,94876.84
2019-06-15T04:55:48.707Z,94875.76
2019-06-15T04:58:17.058Z,94878.11
2019-06-15T05:00:52.803Z,94882.89
2019-06-15T05:03:21.179Z,94904.05
2019-06-15T05:06:06.004Z,94927.39
2019-06-15T05:08:39.385Z,94913.19
2019-06-15T05:11:13.409Z,94933.27
2019-06-15T05:13:41.752Z,94933.00
2019-06-15T05:16:37.528Z,94933.74
2019-06-15T05:19:05.872Z,94948.27
2019-06-15T05:21:34.229Z,94959.84
2019-06-15T05:24:02.608Z,94962.68
2019-06-15T05:29:20.019Z,94985.45
2019-06-15T05:31:48.407Z,94992.91
2019-06-15T05:34:18.676Z,94995.67
2019-06-15T05:36:59.272Z,95005.82
2019-06-15T05:39:27.680Z,95017.52
2019-06-15T05:42:18.072Z,95018.12
2019-06-15T05:44:50.900Z,95021.80
2019-06-15T05:47:19.292Z,95018.03
2019-06-15T05:50:17.196Z,95045.02
2019-06-15T05:52:51.324Z,95034.84
2019-06-15T05:55:19.723Z,95040.55
2019-06-15T05:58:17.715Z,95049.17
2019-06-15T06:01:14.524Z,95056.93
2019-06-15T06:09:44.760Z,95075.36
2019-06-15T06:12:13.144Z,95080.25
2019-06-15T06:14:42.398Z,95087.02
2019-06-15T06:17:10.761Z,95087.53
2019-06-15T06:19:40.002Z,95096.92
2019-06-15T06:24:42.689Z,95107.02
2019-06-15T06:27:36.425Z,95093.73
2019-06-15T06:29:57.222Z,95105.30
2019-06-15T06:32:36.063Z,95105.30
2019-06-15T06:35:30.383Z,95114.73
2019-06-15T06:37:58.768Z,95108.78
2019-06-15T06:40:40.900Z,95123.80
2019-06-15T06:43:39.252Z,95118.07
2019-06-15T06:46:07.590Z,95120.20
2019-06-15T06:48:40.529Z,95126.22
2019-06-15T06:51:09.816Z,95120.66
2019-06-15T06:56:38.766Z,95150.09
2019-06-15T06:59:11.121Z,95144.48
2019-06-15T07:04:29.196Z,95145.16
2019-06-15T07:06:57.545Z,95150.28
2019-06-15T07:09:39.756Z,95158.45
2019-06-15T07:14:44.447Z,95165.29
2019-06-15T07:17:14.749Z,95169.69
2019-06-15T07:19:43.091Z,95183.54
2019-06-15T07:22:30.944Z,95187.67
2019-06-15T07:30:39.949Z,95192.09
2019-06-15T07:35:42.632Z,95207.47
2019-06-15T07:38:28.076Z,95198.53
2019-06-15T07:40:56.392Z,95198.23
2019-06-15T07:43:28.279Z,95199.54
2019-06-15T07:46:01.996Z,95200.97
2019-06-15T07:48:30.388Z,95206.98
2019-06-15T07:51:11.161Z,95212.70
2019-06-15T07:53:39.525Z,95208.50
2019-06-15T07:56:09.775Z,95221.95
2019-06-15T07:58:38.143Z,95229.34
2019-06-15T08:01:07.465Z,95235.27
2019-06-15T08:03:36.776Z,95235.90
2019-06-15T08:06:06.062Z,95237.98
2019-06-15T08:08:34.417Z,95247.66
2019-06-15T08:13:37.116Z,95247.72
2019-06-15T08:16:11.696Z,95245.56
2019-06-15T08:18:40.043Z,95240.47
2019-06-15T08:21:08.397Z,95247.57
2019-06-15T08:23:36.801Z,95243.98
2019-06-15T08:28:44.171Z,95243.41
2019-06-15T08:31:21.025Z,95255.88
2019-06-15T08:36:57.020Z,95245.70
2019-06-15T08:39:28.772Z,95246.43
2019-06-15T08:42:10.114Z,95247.27
2019-06-15T08:44:38.460Z,95247.56
2019-06-15T08:49:42.104Z,95258.75
2019-06-15T08:52:13.861Z,95269.58
2019-06-15T08:54:42.274Z,95277.05
2019-06-15T08:57:24.069Z,95269.59
2019-06-15T08:59:53.362Z,95270.34
2019-06-15T09:02:27.777Z,95268.42
2019-06-15T09:04:58.032Z,95271.77
2019-06-15T09:07:27.269Z,95271.03
2019-06-15T09:10:08.363Z,95268.88
2019-06-15T09:13:04.330Z,95263.23
2019-06-15T09:15:46.104Z,95267.17
2019-06-15T09:18:14.427Z,95272.33
2019-06-15T09:20:42.795Z,95272.38
2019-06-15T09:23:12.036Z,95268.20
2019-06-15T09:25:52.599Z,95265.68
2019-06-15T09:28:20.944Z,95267.17
2019-06-15T09:30:49.343Z,95272.97
2019-06-15T09:33:17.713Z,95274.36
2019-06-15T09:35:54.101Z,95278.20
2019-06-15T09:38:22.721Z,95277.37
2019-06-15T09:40:56.118Z,95276.07
2019-06-15T09:43:24.465Z,95279.34
2019-06-15T09:45:52.826Z,95276.61
2019-06-15T09:48:21.160Z,95275.88
2019-06-15T09:50:55.254Z,95268.82
2019-06-15T09:53:23.605Z,95275.03
2019-06-15T09:56:06.594Z,95284.59
2019-06-15T09:58:47.468Z,95282.05
2019-06-15T10:01:16.729Z,95274.30
2019-06-15T10:03:50.764Z,95283.86
2019-06-15T10:06:19.105Z,95286.39
2019-06-15T10:08:55.140Z,95284.14
2019-06-15T10:11:23.498Z,95293.27
2019-06-15T10:13:56.998Z,95289.98
2019-06-15T10:19:06.757Z,95297.83
2019-06-15T10:21:39.796Z,95300.05
2019-06-15T10:24:27.600Z,95295.14
2019-06-15T10:26:55.982Z,95303.84
2019-06-15T10:29:41.904Z,95305.88
2019-06-15T10:32:08.445Z,95303.80
2019-06-15T10:34:40.458Z,95303.69
2019-06-15T10:39:51.037Z,95312.08
2019-06-15T10:42:22.713Z,95309.55
2019-06-15T10:44:47.773Z,95307.81
2019-06-15T10:47:17.064Z,95310.03
2019-06-15T10:49:45.416Z,95314.30
2019-06-15T10:52:31.085Z,95315.24
2019-06-15T10:55:00.591Z,95318.64
2019-06-15T10:57:39.299Z,95316.27
2019-06-15T11:00:08.419Z,95311.19
2019-06-15T11:02:40.261Z,95318.63
2019-06-15T11:05:08.648Z,95315.63
2019-06-15T11:07:36.981Z,95316.73
2019-06-15T11:10:13.317Z,95317.11
2019-06-15T11:12:46.342Z,95313.02
2019-06-15T11:17:58.623Z,95318.58
2019-06-15T11:20:39.516Z,95316.33
2019-06-15T11:25:51.166Z,95318.69
2019-06-15T11:28:27.967Z,95315.95
2019-06-15T11:30:56.357Z,95312.47
2019-06-15T11:33:36.658Z,95316.94
2019-06-15T11:38:40.365Z,95314.53
2019-06-15T11:41:22.000Z,95310.46
2019-06-15T11:43:50.339Z,95315.28
2019-06-15T11:46:33.349Z,95302.37
2019-06-15T11:49:19.354Z,95300.20
2019-06-15T11:51:47.743Z,95300.21
2019-06-15T11:54:23.354Z,95301.69
2019-06-15T11:56:51.716Z,95299.06
2019-06-15T11:59:32.508Z,95297.52
2019-06-15T12:02:27.286Z,95298.91
2019-06-15T12:04:58.689Z,95304.89
2019-06-15T12:07:28.062Z,95307.60
2019-06-15T12:09:56.412Z,95307.56
2019-06-15T12:12:36.858Z,95294.09
2019-06-15T12:15:07.201Z,95292.27
2019-06-15T12:17:39.881Z,95291.45
2019-06-15T12:20:10.200Z,95290.88
2019-06-15T12:22:38.553Z,95290.06
2019-06-15T12:25:21.080Z,95297.46
2019-06-15T12:27:49.444Z,95292.86
2019-06-15T12:33:03.517Z,95291.85
2019-06-15T12:38:17.266Z,95300.63
2019-06-15T12:40:45.601Z,95293.05
2019-06-15T12:43:17.357Z,95296.19
2019-06-15T12:45:45.716Z,95296.66
2019-06-15T12:48:15.434Z,95291.89
2019-06-15T12:50:44.465Z,95297.31
2019-06-15T12:56:01.240Z,95305.31
2019-06-15T12:58:37.780Z,95305.42
2019-06-15T13:01:16.752Z,95301.66
2019-06-15T13:03:45.180Z,95301.05
2019-06-15T13:06:19.500Z,95303.89
2019-06-15T13:08:47.893Z,95303.91
2019-06-15T13:13:50.649Z,95299.48
2019-06-15T13:16:38.583Z,95302.45
2019-06-15T13:18:52.829Z,95301.77
2019-06-15T13:21:21.184Z,95304.23
2019-06-15T13:23:49.591Z,95308.88
2019-06-15T13:26:17.956Z,95308.23
2019-06-15T13:28:46.356Z,95306.78
2019-06-15T13:31:18.694Z,95302.52
2019-06-15T13:33:46.667Z,95299.98
2019-06-15T13:36:39.105Z,95297.83
2019-06-15T13:39:07.505Z,95299.11
2019-06-15T13:41:39.426Z,95300.37
2019-06-15T13:44:14.064Z,95303.41
2019-06-15T13:46:42.419Z,95301.17
2019-06-15T13:49:14.135Z,95297.86
2019-06-15T13:51:42.469Z,95300.00
2019-06-15T13:54:13.764Z,95299.25
2019-06-15T13:56:42.109Z,95297.84
2019-06-15T13:59:33.965Z,95297.83
2019-06-15T14:02:17.165Z,95293.73
2019-06-15T14:04:45.555Z,95292.88
2019-06-15T14:07:18.503Z,95289.06
2019-06-15T14:09:46.846Z,95289.42
2019-06-15T14:12:19.824Z,95293.77
2019-06-15T14:14:48.200Z,95286.41
2019-06-15T14:17:17.486Z,95286.92
2019-06-15T14:19:45.823Z,95288.95
2019-06-15T14:22:17.321Z,95285.96
2019-06-15T14:24:45.673Z,95283.43
2019-06-15T14:27:17.965Z,95283.80
2019-06-15T14:29:47.152Z,95287.47
2019-06-15T14:32:34.767Z,95288.13
2019-06-15T14:35:13.481Z,95292.41
2019-06-15T14:37:42.777Z,95286.56
2019-06-15T14:43:16.293Z,95288.63
2019-06-15T14:45:58.580Z,95291.23
2019-06-15T14:50:47.270Z,95288.61
2019-06-15T14:53:36.647Z,95288.34
2019-06-15T14:58:39.846Z,95287.03
2019-06-15T15:01:08.202Z,95286.77
2019-06-15T15:03:37.674Z,95287.17
2019-06-15T15:06:10.530Z,95285.84
2019-06-15T15:08:39.779Z,95285.53
2019-06-15T15:11:11.177Z,95284.44
2019-06-15T15:16:17.836Z,95284.19
2019-06-15T15:18:46.327Z,95283.86
2019-06-15T15:21:12.461Z,95282.53
2019-06-15T15:23:40.813Z,95284.24
2019-06-15T15:26:39.423Z,95284.19
2019-06-15T15:29:20.431Z,95285.02
2019-06-15T15:31:48.828Z,95286.05
2019-06-15T15:34:29.260Z,95281.29
2019-06-15T15:36:57.631Z,95278.10
2019-06-15T15:39:40.677Z,95276.25
2019-06-15T15:42:16.938Z,95275.21
2019-06-15T15:44:43.311Z,95273.75
2019-06-15T15:47:38.160Z,95268.25
2019-06-15T15:50:07.523Z,95267.41
2019-06-15T15:52:40.108Z,95267.70
2019-06-15T15:55:38.323Z,95271.06
2019-06-15T15:58:38.049Z,95272.34
2019-06-15T16:01:07.320Z,95266.93
2019-06-15T16:03:40.116Z,95267.94
2019-06-15T16:06:38.389Z,95272.73
2019-06-15T16:09:27.216Z,95278.52
2019-06-15T16:11:56.490Z,95284.64
2019-06-15T16:14:27.309Z,95285.45
2019-06-15T16:16:56.091Z,95282.81
2019-06-15T16:19:26.365Z,95278.91
2019-06-15T16:21:56.057Z,95280.31
2019-06-15T16:24:39.446Z,95273.64
2019-06-15T16:27:27.824Z,95271.12
2019-06-15T16:29:56.958Z,95260.47
2019-06-15T16:32:26.374Z,95256.97
2019-06-15T16:35:09.929Z,95252.56
2019-06-15T16:37:45.139Z,95244.45
2019-06-15T16:40:15.693Z,95243.42
2019-06-15T16:42:48.865Z,95245.38
2019-06-15T16:45:17.243Z,95243.96
2019-06-15T16:47:51.592Z,95247.10
2019-06-15T16:50:19.938Z,95247.61
2019-06-15T16:52:51.537Z,95245.91
2019-06-15T16:55:20.513Z,95244.08
2019-06-15T16:57:50.759Z,95242.97
2019-06-15T17:00:19.102Z,95245.62
2019-06-15T17:02:50.997Z,95248.22
2019-06-15T17:05:19.424Z,95249.09
2019-06-15T17:10:27.022Z,95240.27
2019-06-15T17:13:03.271Z,95240.16
2019-06-15T17:20:46.595Z,95250.72
2019-06-15T17:23:16.391Z,95258.44
2019-06-15T17:28:20.039Z,95257.70
2019-06-15T17:31:00.890Z,95260.31
2019-06-15T17:33:37.470Z,95258.94
2019-06-15T17:38:53.845Z,95258.70
2019-06-15T17:41:22.210Z,95257.91
2019-06-15T17:43:50.588Z,95256.30
2019-06-15T17:46:18.917Z,95258.39
2019-06-15T17:48:58.020Z,95257.58
2019-06-15T17:51:26.906Z,95257.70
2019-06-15T17:56:53.018Z,95247.95
2019-06-15T17:59:22.523Z,95248.67
2019-06-15T18:02:10.808Z,95251.17
2019-06-15T18:05:10.268Z,95249.62
2019-06-15T18:07:42.461Z,95254.61
2019-06-15T18:10:11.787Z,95250.82
2019-06-15T18:13:04.040Z,95245.98
2019-06-15T18:18:12.508Z,95228.73
2019-06-15T18:20:56.851Z,95229.55
2019-06-15T18:23:24.151Z,95229.72
2019-06-15T18:26:11.343Z,95230.45
2019-06-15T18:31:16.415Z,95227.06
2019-06-15T18:34:13.278Z,95222.81
2019-06-15T18:37:10.411Z,95224.59
2019-06-15T18:39:38.761Z,95226.76
2019-06-15T18:42:11.441Z,95223.34
2019-06-15T18:47:16.613Z,95219.56
2019-06-15T18:52:20.827Z,95195.73
2019-06-15T18:54:56.046Z,95193.71
2019-06-15T18:57:22.730Z,95197.33
2019-06-15T18:59:56.971Z,95205.39
2019-06-15T19:02:26.686Z,95202.69
2019-06-15T19:07:28.004Z,95216.63
2019-06-15T19:10:10.532Z,95217.42
2019-06-15T19:15:16.779Z,95218.55
2019-06-15T19:17:46.338Z,95215.41
2019-06-15T19:20:13.996Z,95223.95
2019-06-15T19:25:16.721Z,95226.27
2019-06-15T19:28:08.842Z,95229.23
2019-06-15T19:30:56.088Z,95225.70
2019-06-15T19:33:22.420Z,95231.13
2019-06-15T19:35:56.715Z,95240.46
2019-06-15T19:38:23.467Z,95248.75
2019-06-15T19:40:57.216Z,95262.83
2019-06-15T19:43:25.638Z,95268.68
2019-06-15T19:46:06.770Z,95265.77
2019-06-15T19:48:58.216Z,95268.36
2019-06-15T19:51:29.033Z,95270.39
2019-06-15T19:56:30.193Z,95274.84
2019-06-15T20:01:54.860Z,95274.56
2019-06-15T20:04:23.252Z,95279.16
2019-06-15T20:06:59.024Z,95282.87
2019-06-15T20:09:27.376Z,95286.19
2019-06-15T20:12:18.152Z,95294.51
2019-06-15T20:14:37.724Z,95289.27
2019-06-15T20:17:08.043Z,95296.36
2019-06-15T20:19:37.654Z,95301.39
2019-06-15T20:22:10.006Z,95301.38
2019-06-15T20:27:17.633Z,95308.05
2019-06-15T20:30:09.415Z,95312.60
2019-06-15T20:32:41.137Z,95307.80
2019-06-15T20:35:17.744Z,95310.17
2019-06-15T20:37:55.946Z,95318.22
2019-06-15T20:40:23.750Z,95310.02
2019-06-15T20:45:31.429Z,95311.87
2019-06-15T20:47:57.637Z,95316.11
2019-06-15T20:50:28.533Z,95311.15
2019-06-15T20:53:06.053Z,95312.39
2019-06-15T20:58:09.477Z,95323.09
2019-06-15T21:01:02.447Z,95324.88
2019-06-15T21:03:30.798Z,95322.28
2019-06-15T21:06:09.564Z,95319.09
2019-06-15T21:09:03.841Z,95319.91
2019-06-15T21:14:09.448Z,95314.07
2019-06-15T21:19:16.897Z,95308.21
2019-06-15T21:21:42.638Z,95304.31
2019-06-15T21:24:10.973Z,95306.08
2019-06-15T21:27:07.424Z,95308.38
2019-06-15T21:32:13.153Z,95318.59
2019-06-15T21:35:07.500Z,95319.70
2019-06-15T21:37:47.348Z,95319.59
2019-06-15T21:40:47.507Z,95315.72
2019-06-15T21:43:21.081Z,95320.54
2019-06-15T21:45:49.430Z,95336.50
2019-06-15T21:51:28.473Z,95352.47
2019-06-15T21:53:56.823Z,95358.56
2019-06-15T21:59:00.445Z,95376.63
2019-06-15T22:01:32.108Z,95413.78
2019-06-15T22:06:49.313Z,95449.55
2019-06-15T22:09:36.389Z,95455.63
2019-06-15T22:12:03.475Z,95473.37
2019-06-15T22:14:31.853Z,95508.12
2019-06-15T22:17:00.209Z,95522.94
2019-06-15T22:19:49.089Z,95542.05
2019-06-15T22:22:23.573Z,95537.56
2019-06-15T22:24:51.931Z,95535.39
2019-06-15T22:27:33.117Z,95554.33
2019-06-15T22:30:01.046Z,95544.25
2019-06-15T22:32:47.074Z,95562.68
2019-06-15T22:35:12.151Z,95570.05
2019-06-15T22:37:50.364Z,95566.78
2019-06-15T22:43:18.886Z,95590.61
2019-06-15T22:45:50.707Z,95606.69
2019-06-15T22:48:37.577Z,95606.87
2019-06-15T22:51:06.224Z,95618.52
2019-06-15T22:53:33.430Z,95623.45
2019-06-15T22:56:01.322Z,95619.78
2019-06-15T22:58:46.219Z,95619.03
2019-06-15T23:01:13.758Z,95631.16
2019-06-15T23:03:47.336Z,95626.08
2019-06-15T23:06:31.151Z,95618.27
2019-06-15T23:08:49.536Z,95623.82
2019-06-15T23:14:37.269Z,95603.16
2019-06-15T23:17:03.631Z,95598.62
2019-06-15T23:19:33.564Z,95574.55
2019-06-15T23:22:01.399Z,95567.42
2019-06-15T23:24:36.218Z,95548.16
2019-06-15T23:27:11.382Z,95551.83
2019-06-15T23:29:39.296Z,95575.42
2019-06-15T23:32:33.016Z,95587.98
2019-06-15T23:38:06.409Z,95602.07
2019-06-15T23:40:32.015Z,95602.58
2019-06-15T23:45:53.449Z,95612.90
2019-06-15T23:48:21.403Z,95623.36
2019-06-15T23:50:49.316Z,95629.25
2019-06-15T23:53:17.243Z,95631.77
2019-06-15T23:56:06.341Z,95633.89
